createdAt,value
2022-12-25T00:00:47.940Z,115.15
2022-12-25T00:03:46.702Z,128.25
2022-12-25T00:06:32.910Z,120.75
2022-12-25T00:09:18.791Z,133.82
2022-12-25T00:12:05.483Z,133.18
2022-12-25T00:14:51.370Z,120.05
2022-12-25T00:17:37.461Z,125.65
2022-12-25T00:20:24.029Z,117.10
2022-12-25T00:23:10.080Z,129.98
2022-12-25T00:25:56.217Z,136.25
2022-12-25T00:28:45.804Z,116.90
2022-12-25T00:31:31.967Z,123.22
2022-12-25T00:34:18.348Z,117.22
2022-12-25T00:37:04.288Z,108.65
2022-12-25T00:39:54.807Z,117.95
2022-12-25T00:42:40.645Z,110.15
2022-12-25T00:45:29.564Z,115.15
2022-12-25T00:48:15.873Z,103.28
2022-12-25T00:51:07.416Z,91.88
2022-12-25T00:53:54.416Z,100.53
2022-12-25T00:56:40.873Z,97.72
2022-12-25T00:59:26.761Z,103.55
2022-12-25T01:02:25.904Z,95.45
2022-12-25T01:05:12.421Z,98.63
2022-12-25T01:07:59.211Z,98.20
2022-12-25T01:10:54.000Z,91.15
2022-12-25T01:13:41.502Z,87.60
2022-12-25T01:16:28.222Z,91.55
2022-12-25T01:19:14.827Z,91.93
2022-12-25T01:22:01.048Z,99.13
2022-12-25T01:24:47.529Z,95.63
2022-12-25T01:27:33.988Z,108.20
2022-12-25T01:30:20.197Z,100.53
2022-12-25T01:33:06.598Z,92.60
2022-12-25T01:35:52.771Z,109.50
2022-12-25T01:38:39.049Z,101.07
2022-12-25T01:41:26.095Z,92.10
2022-12-25T01:44:14.807Z,91.40
2022-12-25T01:47:06.517Z,100.43
2022-12-25T01:49:52.213Z,98.47
2022-12-25T01:52:39.351Z,87.72
2022-12-25T01:55:26.762Z,99.75
2022-12-25T01:58:17.376Z,98.10
2022-12-25T02:01:03.250Z,92.28
2022-12-25T02:03:49.843Z,113.82
2022-12-25T02:06:35.872Z,93.22
2022-12-25T02:09:22.530Z,90.75
2022-12-25T02:12:10.456Z,111.43
2022-12-25T02:15:05.033Z,87.50
2022-12-25T02:18:03.289Z,88.45
2022-12-25T02:20:58.450Z,87.20
2022-12-25T02:24:24.911Z,87.50
2022-12-25T02:27:42.683Z,101.75
2022-12-25T02:30:35.018Z,80.82
2022-12-25T02:33:49.784Z,80.88
2022-12-25T02:36:54.430Z,81.95
2022-12-25T02:39:58.210Z,91.25
2022-12-25T02:43:09.088Z,97.75
2022-12-25T02:46:25.318Z,87.30
2022-12-25T02:49:36.753Z,109.70
2022-12-25T02:52:42.960Z,104.38
2022-12-25T02:55:52.966Z,76.78
2022-12-25T02:59:09.001Z,94.57
2022-12-25T03:02:14.635Z,68.10
2022-12-25T03:05:26.283Z,93.10
2022-12-25T03:08:16.691Z,96.80
2022-12-25T03:11:24.899Z,109.80
2022-12-25T03:14:29.440Z,83.93
2022-12-25T03:17:15.968Z,75.30
2022-12-25T03:20:21.104Z,82.43
2022-12-25T03:23:27.855Z,75.70
2022-12-25T03:26:32.729Z,87.00
2022-12-25T03:29:37.477Z,82.20
2022-12-25T03:32:32.829Z,109.32
2022-12-25T03:35:31.267Z,74.13
2022-12-25T03:38:52.166Z,80.43
2022-12-25T03:42:05.390Z,85.72
2022-12-25T03:45:26.913Z,92.18
2022-12-25T03:48:33.234Z,76.03
2022-12-25T03:51:41.779Z,94.63
2022-12-25T03:54:50.332Z,87.32
2022-12-25T03:57:58.001Z,82.95
2022-12-25T04:01:04.077Z,91.30
2022-12-25T04:04:08.830Z,77.65
2022-12-25T04:07:16.466Z,92.85
2022-12-25T04:10:21.122Z,80.63
2022-12-25T04:13:27.085Z,95.82
2022-12-25T04:16:31.765Z,89.43
2022-12-25T04:19:36.895Z,82.32
2022-12-25T04:22:41.715Z,118.28
2022-12-25T04:25:47.023Z,78.15
2022-12-25T04:28:51.840Z,73.85
2022-12-25T04:31:56.534Z,69.40
2022-12-25T04:35:01.786Z,76.95
2022-12-25T04:37:48.295Z,76.65
2022-12-25T04:40:34.276Z,73.50
2022-12-25T04:43:20.253Z,77.75
2022-12-25T04:46:06.490Z,78.85
2022-12-25T04:48:53.406Z,97.03
2022-12-25T04:51:39.641Z,88.95
2022-12-25T04:54:26.100Z,72.35
2022-12-25T04:57:12.613Z,108.60
2022-12-25T04:59:59.065Z,78.30
2022-12-25T05:02:45.479Z,83.68
2022-12-25T05:05:32.588Z,83.13
2022-12-25T05:08:18.656Z,89.53
2022-12-25T05:11:10.443Z,95.78
2022-12-25T05:16:44.047Z,61.70
2022-12-25T05:19:30.363Z,45.67
2022-12-25T05:22:16.784Z,65.63
2022-12-25T05:25:02.427Z,50.40
2022-12-25T05:27:53.879Z,58.65
2022-12-25T05:30:40.279Z,57.28
2022-12-25T05:33:27.064Z,43.03
2022-12-25T05:36:13.203Z,42.72
2022-12-25T05:39:00.352Z,38.33
2022-12-25T05:41:46.360Z,37.55
2022-12-25T05:44:33.177Z,37.58
2022-12-25T05:47:19.330Z,40.75
2022-12-25T05:50:07.452Z,40.08
2022-12-25T05:52:53.420Z,78.72
2022-12-25T05:55:43.820Z,39.78
2022-12-25T05:58:30.843Z,35.70
2022-12-25T06:01:20.687Z,38.95
2022-12-25T06:04:12.082Z,38.45
2022-12-25T06:06:59.038Z,42.60
2022-12-25T06:09:44.737Z,44.38
2022-12-25T06:12:31.269Z,43.67
2022-12-25T06:15:17.614Z,39.92
2022-12-25T06:18:04.731Z,38.45
2022-12-25T06:20:50.934Z,39.10
2022-12-25T06:23:38.063Z,37.60
2022-12-25T06:26:23.700Z,36.67
2022-12-25T06:29:10.589Z,39.70
2022-12-25T06:31:57.637Z,38.03
2022-12-25T06:34:44.013Z,43.90
2022-12-25T06:37:30.188Z,38.55
2022-12-25T06:40:17.492Z,43.88
2022-12-25T06:43:03.281Z,35.75
2022-12-25T06:45:53.248Z,46.05
2022-12-25T06:48:40.818Z,47.55
2022-12-25T06:51:29.295Z,63.42
2022-12-25T06:54:14.942Z,267.90
2022-12-25T06:57:01.582Z,173.05
2022-12-25T06:59:54.583Z,123.65
2022-12-25T07:02:47.652Z,82.10
2022-12-25T07:05:33.561Z,62.92
2022-12-25T07:08:19.549Z,43.10
2022-12-25T07:11:05.887Z,49.42
2022-12-25T07:13:52.932Z,47.67
2022-12-25T07:16:39.236Z,46.95
2022-12-25T07:19:26.826Z,42.22
2022-12-25T07:22:14.719Z,49.50
2022-12-25T07:25:01.600Z,51.28
2022-12-25T07:27:50.039Z,55.70
2022-12-25T07:30:38.806Z,57.80
2022-12-25T07:33:25.215Z,50.72
2022-12-25T07:36:12.966Z,54.80
2022-12-25T07:38:59.755Z,48.42
2022-12-25T07:41:47.611Z,48.08
2022-12-25T07:44:34.627Z,42.70
2022-12-25T07:47:20.872Z,54.42
2022-12-25T07:50:08.519Z,48.92
2022-12-25T07:52:55.906Z,54.38
2022-12-25T07:55:41.860Z,47.63
2022-12-25T07:58:35.336Z,48.65
2022-12-25T08:01:25.472Z,49.65
2022-12-25T08:04:14.929Z,58.05
2022-12-25T08:07:01.468Z,49.63
2022-12-25T08:09:48.307Z,52.60
2022-12-25T08:12:35.458Z,67.18
2022-12-25T08:15:23.045Z,58.22
2022-12-25T08:18:09.316Z,51.42
2022-12-25T08:20:56.009Z,48.92
2022-12-25T08:23:44.078Z,75.97
2022-12-25T08:26:31.463Z,68.35
2022-12-25T08:29:18.245Z,49.50
2022-12-25T08:32:04.862Z,87.95
2022-12-25T08:34:51.743Z,58.10
2022-12-25T08:37:39.418Z,54.63
2022-12-25T08:40:25.646Z,54.33
2022-12-25T08:43:11.825Z,63.60
2022-12-25T08:45:57.648Z,54.70
2022-12-25T08:48:46.052Z,89.28
2022-12-25T08:51:32.610Z,48.03
2022-12-25T08:54:18.540Z,86.25
2022-12-25T08:57:06.204Z,57.60
2022-12-25T08:59:53.089Z,53.13
2022-12-25T09:02:39.413Z,85.18
2022-12-25T09:05:26.855Z,89.07
2022-12-25T09:08:12.590Z,61.70
2022-12-25T09:11:08.862Z,27.60
2022-12-25T09:13:55.608Z,26.85
2022-12-25T09:16:43.321Z,24.55
2022-12-25T09:19:30.320Z,23.48
2022-12-25T09:22:16.959Z,30.20
2022-12-25T09:25:18.262Z,33.88
2022-12-25T09:28:10.591Z,29.10
2022-12-25T09:31:00.962Z,45.03
2022-12-25T09:33:47.583Z,34.38
2022-12-25T09:36:33.678Z,30.52
2022-12-25T09:39:20.393Z,27.75
2022-12-25T09:42:13.656Z,34.85
2022-12-25T09:45:03.592Z,27.90
2022-12-25T09:47:49.823Z,29.35
2022-12-25T09:50:46.536Z,25.98
2022-12-25T09:53:38.076Z,29.23
2022-12-25T09:56:26.231Z,33.08
2022-12-25T09:59:25.814Z,41.17
2022-12-25T10:02:31.082Z,54.00
2022-12-25T10:05:53.192Z,35.30
2022-12-25T10:09:01.402Z,33.72
2022-12-25T10:12:12.669Z,42.13
2022-12-25T10:15:17.155Z,46.78
2022-12-25T10:18:28.872Z,40.08
2022-12-25T10:21:18.656Z,38.70
2022-12-25T10:24:30.491Z,35.03
2022-12-25T10:27:30.357Z,63.95
2022-12-25T10:30:19.993Z,89.15
2022-12-25T10:36:01.325Z,59.22
2022-12-25T10:38:48.502Z,42.88
2022-12-25T10:42:11.074Z,51.85
2022-12-25T10:45:03.181Z,47.58
2022-12-25T10:47:54.398Z,37.03
2022-12-25T10:50:46.295Z,47.38
2022-12-25T10:54:00.219Z,48.72
2022-12-25T10:57:10.409Z,36.33
2022-12-25T11:00:01.519Z,61.60
2022-12-25T11:02:50.280Z,33.03
2022-12-25T11:05:39.012Z,29.65
2022-12-25T11:08:28.150Z,85.07
2022-12-25T11:11:21.092Z,136.18
2022-12-25T11:14:20.077Z,68.70
2022-12-25T11:17:25.974Z,150.35
2022-12-25T11:20:18.568Z,250.50
2022-12-25T11:23:10.478Z,215.38
2022-12-25T11:26:03.747Z,134.23
2022-12-25T11:28:54.376Z,286.23
2022-12-25T11:31:41.589Z,217.07
2022-12-25T11:34:34.107Z,79.25
2022-12-25T11:37:31.600Z,112.00
2022-12-25T11:40:36.294Z,404.33
2022-12-25T11:43:46.572Z,246.73
2022-12-25T11:46:41.899Z,195.30
2022-12-25T11:49:29.627Z,215.65
2022-12-25T11:52:17.520Z,280.27
2022-12-25T11:55:38.704Z,397.02
2022-12-25T11:58:35.471Z,135.48
2022-12-25T12:01:43.296Z,155.43
2022-12-25T12:04:48.355Z,164.68
2022-12-25T12:07:35.852Z,246.73
2022-12-25T12:10:28.659Z,183.18
2022-12-25T12:13:41.025Z,93.88
2022-12-25T12:16:26.987Z,71.00
2022-12-25T12:19:27.370Z,194.35
2022-12-25T12:22:25.497Z,152.73
2022-12-25T12:25:17.418Z,98.15
2022-12-25T12:28:05.853Z,161.30
2022-12-25T12:31:07.570Z,95.53
2022-12-25T12:36:41.889Z,131.32
2022-12-25T12:39:34.532Z,118.85
2022-12-25T12:42:31.717Z,122.90
2022-12-25T12:45:23.787Z,317.13
2022-12-25T12:48:21.912Z,159.27
2022-12-25T12:51:12.288Z,91.30
2022-12-25T12:54:25.731Z,162.77
2022-12-25T12:57:27.199Z,130.10
2022-12-25T13:03:29.268Z,77.88
2022-12-25T13:06:30.524Z,95.20
2022-12-25T13:09:57.079Z,99.95
2022-12-25T13:13:16.464Z,78.97
2022-12-25T13:16:07.535Z,91.32
2022-12-25T13:18:57.972Z,72.82
2022-12-25T13:22:02.965Z,116.95
2022-12-25T13:24:57.181Z,219.18
2022-12-25T13:28:16.185Z,171.73
2022-12-25T13:31:16.553Z,132.43
2022-12-25T13:34:13.302Z,174.80
2022-12-25T13:37:07.988Z,144.10
2022-12-25T13:40:00.927Z,146.02
2022-12-25T13:42:48.213Z,104.00
2022-12-25T13:45:40.976Z,98.40
2022-12-25T13:48:31.868Z,147.95
2022-12-25T13:51:24.776Z,140.32
2022-12-25T13:54:13.841Z,104.47
2022-12-25T13:57:00.139Z,161.43
2022-12-25T13:59:48.165Z,170.27
2022-12-25T14:02:38.644Z,113.95
2022-12-25T14:05:42.250Z,113.53
2022-12-25T14:08:37.953Z,90.68
2022-12-25T14:11:27.699Z,111.50
2022-12-25T14:14:20.938Z,75.82
2022-12-25T14:17:11.923Z,75.10
2022-12-25T14:20:07.614Z,94.88
2022-12-25T14:23:00.732Z,133.73
2022-12-25T14:25:55.532Z,209.73
2022-12-25T14:28:43.868Z,221.75
2022-12-25T14:31:30.635Z,206.57
2022-12-25T14:34:21.847Z,187.55
2022-12-25T14:37:32.502Z,199.27
2022-12-25T14:40:26.889Z,170.40
2022-12-25T14:43:25.475Z,152.27
2022-12-25T14:46:26.094Z,144.20
2022-12-25T14:49:25.473Z,136.95
2022-12-25T14:52:34.455Z,134.45
2022-12-25T14:55:26.989Z,99.50
2022-12-25T14:58:31.239Z,91.22
2022-12-25T15:01:32.648Z,105.13
2022-12-25T15:04:20.770Z,152.60
2022-12-25T15:07:30.415Z,197.35
2022-12-25T15:10:59.016Z,210.32
2022-12-25T15:13:30.274Z,186.95
2022-12-25T15:16:24.736Z,160.90
2022-12-25T15:19:26.607Z,126.47
2022-12-25T15:22:15.287Z,74.75
2022-12-25T15:25:04.381Z,99.45
2022-12-25T15:27:53.480Z,105.30
2022-12-25T15:30:42.252Z,110.72
2022-12-25T15:33:29.523Z,116.65
2022-12-25T15:36:15.782Z,82.18
2022-12-25T15:39:04.900Z,113.25
2022-12-25T15:42:09.832Z,119.72
2022-12-25T15:44:57.507Z,77.97
2022-12-25T15:47:47.135Z,80.97
2022-12-25T15:50:39.971Z,109.70
2022-12-25T15:53:35.172Z,116.05
2022-12-25T15:56:22.755Z,120.60
2022-12-25T15:59:15.210Z,118.13
2022-12-25T16:02:03.621Z,122.78
2022-12-25T16:04:52.725Z,111.32
2022-12-25T16:07:39.720Z,120.28
2022-12-25T16:10:34.909Z,173.15
2022-12-25T16:13:27.077Z,171.85
2022-12-25T16:16:15.497Z,204.43
2022-12-25T16:19:02.621Z,148.65
2022-12-25T16:21:51.027Z,138.45
2022-12-25T16:24:38.597Z,185.65
2022-12-25T16:27:27.353Z,172.55
2022-12-25T16:30:17.624Z,132.00
2022-12-25T16:33:04.133Z,105.25
2022-12-25T16:35:52.828Z,104.32
2022-12-25T16:38:38.935Z,91.53
2022-12-25T16:41:26.152Z,131.43
2022-12-25T16:44:12.363Z,122.72
2022-12-25T16:46:59.502Z,118.68
2022-12-25T16:49:45.775Z,115.82
2022-12-25T16:52:50.402Z,98.50
2022-12-25T16:56:08.111Z,95.65
2022-12-25T16:59:16.812Z,124.70
2022-12-25T17:02:06.200Z,117.78
2022-12-25T17:05:05.627Z,129.38
2022-12-25T17:07:53.975Z,106.10
2022-12-25T17:12:13.709Z,121.05
2022-12-25T17:15:09.996Z,138.48
2022-12-25T17:19:00.036Z,119.00
2022-12-25T17:23:20.558Z,115.07
2022-12-25T17:26:56.452Z,184.60
2022-12-25T17:29:54.222Z,115.97
2022-12-25T17:32:47.907Z,119.32
2022-12-25T17:35:43.658Z,242.88
2022-12-25T17:38:51.435Z,162.27
2022-12-25T17:41:46.638Z,130.82
2022-12-25T17:47:49.708Z,188.55
2022-12-25T17:50:41.587Z,154.10
2022-12-25T17:53:43.030Z,168.60
2022-12-25T17:56:31.887Z,187.40
2022-12-25T17:59:33.163Z,172.93
2022-12-25T18:02:24.134Z,191.32
2022-12-25T18:05:11.675Z,159.35
2022-12-25T18:08:00.774Z,191.00
2022-12-25T18:10:47.516Z,134.68
2022-12-25T18:13:43.741Z,142.93
2022-12-25T18:16:40.012Z,191.68
2022-12-25T18:19:31.428Z,160.63
2022-12-25T18:22:26.890Z,167.43
2022-12-25T18:25:15.023Z,140.52
2022-12-25T18:36:03.170Z,125.57
2022-12-25T18:40:10.060Z,240.88
2022-12-25T18:43:53.960Z,130.10
2022-12-25T18:46:30.357Z,135.50
2022-12-25T18:49:17.785Z,123.78
2022-12-25T18:52:48.462Z,102.07
2022-12-25T18:55:11.803Z,109.78
2022-12-25T18:57:59.202Z,115.43
2022-12-25T19:00:45.302Z,99.32
2022-12-25T19:03:32.090Z,99.50
2022-12-25T19:06:20.376Z,135.38
2022-12-25T19:09:12.396Z,104.32
2022-12-25T19:11:58.092Z,97.90
2022-12-25T19:14:48.595Z,122.63
2022-12-25T19:20:27.251Z,128.13
2022-12-25T19:23:16.295Z,103.65
2022-12-25T19:26:05.812Z,97.32
2022-12-25T19:28:52.678Z,105.32
2022-12-25T19:42:23.238Z,109.70
2022-12-25T19:45:10.971Z,82.30
2022-12-25T19:48:03.785Z,82.13
2022-12-25T19:50:54.800Z,84.15
2022-12-25T19:54:09.263Z,89.70
2022-12-25T19:57:26.123Z,86.88
2022-12-25T20:00:38.481Z,84.65
2022-12-25T20:04:02.084Z,77.90
2022-12-25T20:07:10.443Z,98.43
2022-12-25T20:10:09.602Z,79.38
2022-12-25T20:13:09.401Z,77.47
2022-12-25T20:16:15.052Z,76.18
2022-12-25T20:19:18.917Z,79.00
2022-12-25T20:22:08.941Z,70.75
2022-12-25T20:25:09.083Z,74.97
2022-12-25T20:28:26.838Z,61.30
2022-12-25T20:31:32.813Z,68.15
2022-12-25T20:34:25.673Z,73.30
2022-12-25T20:37:27.095Z,72.03
2022-12-25T20:40:22.683Z,70.70
2022-12-25T20:43:45.473Z,75.75
2022-12-25T20:46:54.497Z,71.30
2022-12-25T20:50:15.217Z,54.38
2022-12-25T20:53:12.514Z,67.57
2022-12-25T20:56:04.973Z,65.60
2022-12-25T20:59:09.809Z,77.28
2022-12-25T21:08:38.249Z,58.20
2022-12-25T21:11:48.092Z,61.45
2022-12-25T21:15:15.728Z,57.43
2022-12-25T21:18:13.520Z,56.08
2022-12-25T21:21:44.407Z,61.97
2022-12-25T21:25:07.975Z,54.25
2022-12-25T21:28:03.973Z,71.28
2022-12-25T21:30:55.662Z,90.53
2022-12-25T21:34:04.409Z,64.95
2022-12-25T21:37:01.300Z,58.50
2022-12-25T21:40:16.172Z,79.00
2022-12-25T21:46:29.164Z,89.45
2022-12-25T21:49:48.312Z,86.63
2022-12-25T21:52:48.602Z,66.10
2022-12-25T21:56:43.912Z,89.53
2022-12-25T21:59:42.004Z,97.75
2022-12-25T22:02:36.330Z,118.32
2022-12-25T22:05:44.179Z,67.43
2022-12-25T22:08:41.948Z,75.70
2022-12-25T22:12:13.526Z,61.85
2022-12-25T22:15:09.880Z,69.43
2022-12-25T22:18:21.981Z,90.75
2022-12-25T22:21:24.888Z,77.55
2022-12-25T22:24:28.892Z,101.97
2022-12-25T22:27:23.307Z,82.82
2022-12-25T22:30:36.536Z,68.90
2022-12-25T22:33:31.821Z,76.60
2022-12-25T22:36:37.065Z,82.60
2022-12-25T22:39:29.203Z,91.60
2022-12-25T22:42:28.810Z,66.80
2022-12-25T22:45:26.950Z,67.32
2022-12-25T22:48:26.653Z,60.35
2022-12-25T22:51:24.616Z,83.47
2022-12-25T22:54:20.207Z,71.38
2022-12-25T22:57:10.210Z,73.72
2022-12-25T23:00:07.206Z,73.20
2022-12-25T23:03:13.959Z,62.00
2022-12-25T23:06:07.148Z,67.72
2022-12-25T23:09:40.903Z,92.47
2022-12-25T23:12:58.729Z,69.13
2022-12-25T23:16:01.967Z,65.63
2022-12-25T23:19:24.208Z,59.38
2022-12-25T23:22:34.556Z,56.40
2022-12-25T23:25:52.121Z,54.97
2022-12-25T23:29:20.797Z,60.20
2022-12-25T23:32:29.964Z,64.13
2022-12-25T23:35:27.536Z,60.28
2022-12-25T23:38:25.630Z,64.07
2022-12-25T23:41:23.794Z,58.90
2022-12-25T23:44:28.413Z,60.08
2022-12-25T23:47:21.558Z,63.47
2022-12-25T23:50:08.372Z,68.57
2022-12-25T23:56:53.010Z,60.58
2022-12-25T23:59:51.343Z,63.53
